THY5BM LTCV-LTFM
Flight info
| Callsign | THY5BM |
|---|---|
| Flight time | 2h 27m |
| Altitude | 36000 |
| Route | ABDIK UW197 SRT UL614 ULSAB UL718 ETESU UT888 SIV UL615 YAVRU UA4 ERSEN |
| Aircraft | A320/M-SDE2E3FGIJ1RWY/LB1 |
Departure
| Time | 2026-04-12 08:13 |
|---|---|
| Airport | Şırnak Şerafettin Elçi Airport (LTCV) |
Arrival
| Time | 2026-04-12 10:41 |
|---|---|
| Airport | İstanbul Airport (LTFM) |
| Time | Latitude | Longitude | Altitude | Speed | Heading |
|---|---|---|---|---|---|
| 2026-04-12 07:00 | 37.36111 | 42.05893 | 2068 ft | 0 kts | 237° |
| 2026-04-12 08:04 | 37.36111 | 42.05892 | 2068 ft | 1 kts | 237° |
| 2026-04-12 08:04 | 37.36107 | 42.05883 | 2067 ft | 2 kts | 239° |
| 2026-04-12 08:04 | 37.36106 | 42.05869 | 2067 ft | 1 kts | 271° |
| 2026-04-12 08:04 | 37.36107 | 42.05867 | 2067 ft | 0 kts | 280° |
| 2026-04-12 08:05 | 37.36108 | 42.05864 | 2067 ft | 1 kts | 291° |
| 2026-04-12 08:05 | 37.36111 | 42.05861 | 2067 ft | 2 kts | 304° |
| 2026-04-12 08:05 | 37.36127 | 42.05854 | 2068 ft | 3 kts | 4° |
| 2026-04-12 08:05 | 37.36147 | 42.05861 | 2070 ft | 3 kts | 21° |
| 2026-04-12 08:06 | 37.36170 | 42.05875 | 2071 ft | 4 kts | 25° |
| 2026-04-12 08:06 | 37.36199 | 42.05891 | 2073 ft | 5 kts | 25° |
| 2026-04-12 08:06 | 37.36242 | 42.05916 | 2076 ft | 9 kts | 25° |
| 2026-04-12 08:06 | 37.36309 | 42.05955 | 2077 ft | 11 kts | 24° |
| 2026-04-12 08:07 | 37.36371 | 42.05994 | 2074 ft | 9 kts | 39° |
| 2026-04-12 08:07 | 37.36382 | 42.06053 | 2077 ft | 6 kts | 102° |
| 2026-04-12 08:07 | 37.36369 | 42.06088 | 2077 ft | 3 kts | 115° |
| 2026-04-12 08:07 | 37.36357 | 42.06121 | 2077 ft | 6 kts | 115° |
| 2026-04-12 08:08 | 37.36335 | 42.06181 | 2075 ft | 10 kts | 115° |
| 2026-04-12 08:08 | 37.36301 | 42.06274 | 2073 ft | 14 kts | 115° |
| 2026-04-12 08:08 | 37.36255 | 42.06389 | 2074 ft | 15 kts | 117° |
| 2026-04-12 08:08 | 37.36225 | 42.06466 | 2073 ft | 14 kts | 116° |
| 2026-04-12 08:09 | 37.36181 | 42.06578 | 2069 ft | 14 kts | 112° |
| 2026-04-12 08:09 | 37.36142 | 42.06682 | 2069 ft | 12 kts | 116° |
| 2026-04-12 08:09 | 37.36112 | 42.06763 | 2070 ft | 9 kts | 115° |
| 2026-04-12 08:09 | 37.36084 | 42.06834 | 2069 ft | 9 kts | 115° |
| 2026-04-12 08:10 | 37.36058 | 42.06903 | 2069 ft | 8 kts | 115° |
| 2026-04-12 08:10 | 37.36029 | 42.06978 | 2070 ft | 7 kts | 116° |
| 2026-04-12 08:10 | 37.36009 | 42.07032 | 2072 ft | 7 kts | 116° |
| 2026-04-12 08:10 | 37.35995 | 42.07068 | 2073 ft | 7 kts | 116° |
| 2026-04-12 08:11 | 37.35973 | 42.07124 | 2073 ft | 8 kts | 116° |
| 2026-04-12 08:11 | 37.35946 | 42.07196 | 2073 ft | 10 kts | 115° |
| 2026-04-12 08:11 | 37.35943 | 42.07279 | 2073 ft | 9 kts | 82° |
| 2026-04-12 08:11 | 37.35929 | 42.07346 | 2073 ft | 7 kts | 154° |
| 2026-04-12 08:12 | 37.35905 | 42.07305 | 2073 ft | 7 kts | 274° |
| 2026-04-12 08:12 | 37.35927 | 42.07244 | 2073 ft | 10 kts | 294° |
| 2026-04-12 08:12 | 37.35985 | 42.07097 | 2073 ft | 41 kts | 297° |
| 2026-04-12 08:12 | 37.36208 | 42.06511 | 2071 ft | 103 kts | 295° |
| 2026-04-12 08:13 | 37.36585 | 42.05523 | 2073 ft | 150 kts | 296° |
| 2026-04-12 08:13 | 37.37076 | 42.04225 | 2430 ft | 164 kts | 297° |
| 2026-04-12 08:13 | 37.37579 | 42.02955 | 3255 ft | 161 kts | 296° |
| 2026-04-12 08:13 | 37.38121 | 42.01637 | 3542 ft | 182 kts | 296° |
| 2026-04-12 08:14 | 37.38741 | 42.00130 | 3805 ft | 202 kts | 296° |
| 2026-04-12 08:14 | 37.39400 | 41.98511 | 4048 ft | 221 kts | 295° |
| 2026-04-12 08:14 | 37.40130 | 41.96680 | 4306 ft | 246 kts | 295° |
| 2026-04-12 08:14 | 37.40928 | 41.94674 | 4751 ft | 264 kts | 295° |
| 2026-04-12 08:15 | 37.41818 | 41.92585 | 5506 ft | 272 kts | 305° |
| 2026-04-12 08:15 | 37.43314 | 41.91115 | 6248 ft | 281 kts | 339° |
| 2026-04-12 08:15 | 37.45228 | 41.90895 | 6942 ft | 286 kts | 13° |
| 2026-04-12 08:15 | 37.46999 | 41.92012 | 7616 ft | 290 kts | 44° |
| 2026-04-12 08:16 | 37.48304 | 41.93949 | 8322 ft | 292 kts | 59° |
| 2026-04-12 08:16 | 37.49550 | 41.96048 | 9003 ft | 300 kts | 48° |
| 2026-04-12 08:16 | 37.51171 | 41.97691 | 9694 ft | 308 kts | 31° |
| 2026-04-12 08:16 | 37.53142 | 41.98814 | 10225 ft | 320 kts | 17° |
| 2026-04-12 08:17 | 37.55392 | 41.99357 | 10392 ft | 341 kts | 2° |
| 2026-04-12 08:17 | 37.57815 | 41.99204 | 10672 ft | 355 kts | 347° |
| 2026-04-12 08:17 | 37.60223 | 41.98432 | 11246 ft | 360 kts | 341° |
| 2026-04-12 08:17 | 37.62653 | 41.97590 | 11879 ft | 364 kts | 341° |
| 2026-04-12 08:18 | 37.65114 | 41.96756 | 12530 ft | 368 kts | 342° |
| 2026-04-12 08:18 | 37.67607 | 41.95917 | 13149 ft | 372 kts | 341° |
| 2026-04-12 08:18 | 37.70118 | 41.95072 | 13829 ft | 375 kts | 341° |
| 2026-04-12 08:18 | 37.72657 | 41.94233 | 14412 ft | 379 kts | 341° |
| 2026-04-12 08:19 | 37.75222 | 41.93396 | 14968 ft | 383 kts | 342° |
| 2026-04-12 08:19 | 37.77814 | 41.92552 | 15567 ft | 386 kts | 342° |
| 2026-04-12 08:19 | 37.80426 | 41.91698 | 16064 ft | 390 kts | 342° |
| 2026-04-12 08:19 | 37.83069 | 41.90830 | 16606 ft | 394 kts | 342° |
| 2026-04-12 08:20 | 37.85712 | 41.89913 | 17223 ft | 394 kts | 337° |
| 2026-04-12 08:20 | 37.88181 | 41.88460 | 17797 ft | 390 kts | 324° |
| 2026-04-12 08:20 | 37.90328 | 41.86390 | 18321 ft | 387 kts | 311° |
| 2026-04-12 08:20 | 37.92073 | 41.83821 | 18806 ft | 384 kts | 299° |
| 2026-04-12 08:21 | 37.93352 | 41.80883 | 19297 ft | 380 kts | 288° |
| 2026-04-12 08:21 | 37.94326 | 41.77759 | 19771 ft | 382 kts | 286° |
| 2026-04-12 08:21 | 37.95299 | 41.74611 | 20247 ft | 386 kts | 286° |
| 2026-04-12 08:21 | 37.96282 | 41.71433 | 20707 ft | 389 kts | 286° |
| 2026-04-12 08:22 | 37.97276 | 41.68229 | 21171 ft | 393 kts | 286° |
| 2026-04-12 08:22 | 37.98285 | 41.64987 | 21618 ft | 396 kts | 286° |
| 2026-04-12 08:22 | 37.99300 | 41.61728 | 22075 ft | 400 kts | 286° |
| 2026-04-12 08:22 | 38.00321 | 41.58440 | 22524 ft | 403 kts | 286° |
| 2026-04-12 08:23 | 38.01348 | 41.55120 | 22960 ft | 406 kts | 286° |
| 2026-04-12 08:23 | 38.02380 | 41.51779 | 23384 ft | 409 kts | 286° |
| 2026-04-12 08:23 | 38.03421 | 41.48410 | 23765 ft | 412 kts | 286° |
| 2026-04-12 08:23 | 38.04470 | 41.45018 | 24130 ft | 414 kts | 286° |
| 2026-04-12 08:24 | 38.05520 | 41.41616 | 24510 ft | 416 kts | 286° |
| 2026-04-12 08:24 | 38.06576 | 41.38191 | 24881 ft | 417 kts | 286° |
| 2026-04-12 08:24 | 38.07634 | 41.34752 | 25267 ft | 419 kts | 286° |
| 2026-04-12 08:24 | 38.08695 | 41.31298 | 25649 ft | 421 kts | 285° |
| 2026-04-12 08:25 | 38.09757 | 41.27833 | 26050 ft | 423 kts | 285° |
| 2026-04-12 08:25 | 38.10824 | 41.24346 | 26449 ft | 424 kts | 285° |
| 2026-04-12 08:25 | 38.11892 | 41.20849 | 26796 ft | 426 kts | 285° |
| 2026-04-12 08:25 | 38.12951 | 41.17379 | 27168 ft | 428 kts | 285° |
| 2026-04-12 08:26 | 38.14119 | 41.13883 | 27572 ft | 434 kts | 291° |
| 2026-04-12 08:26 | 38.15707 | 41.10591 | 27921 ft | 442 kts | 301° |
| 2026-04-12 08:26 | 38.17531 | 41.07433 | 28252 ft | 444 kts | 301° |
| 2026-04-12 08:26 | 38.19363 | 41.04258 | 28571 ft | 446 kts | 301° |
| 2026-04-12 08:27 | 38.21201 | 41.01068 | 28894 ft | 448 kts | 301° |
| 2026-04-12 08:27 | 38.23040 | 40.97867 | 29338 ft | 447 kts | 301° |
| 2026-04-12 08:27 | 38.24893 | 40.94629 | 29830 ft | 446 kts | 300° |
| 2026-04-12 08:27 | 38.26691 | 40.91482 | 30262 ft | 445 kts | 300° |
| 2026-04-12 08:28 | 38.28507 | 40.88308 | 30688 ft | 443 kts | 300° |
| 2026-04-12 08:28 | 38.30320 | 40.85139 | 31134 ft | 441 kts | 300° |
| 2026-04-12 08:28 | 38.32115 | 40.81994 | 31563 ft | 439 kts | 301° |
| 2026-04-12 08:28 | 38.33905 | 40.78851 | 31970 ft | 437 kts | 301° |
| 2026-04-12 08:29 | 38.35688 | 40.75720 | 32392 ft | 436 kts | 301° |
| 2026-04-12 08:29 | 38.37461 | 40.72603 | 32843 ft | 434 kts | 301° |
| 2026-04-12 08:29 | 38.39224 | 40.69497 | 33320 ft | 431 kts | 301° |
| 2026-04-12 08:29 | 38.40977 | 40.66407 | 33801 ft | 429 kts | 301° |
| 2026-04-12 08:30 | 38.42723 | 40.63323 | 33972 ft | 429 kts | 301° |
| 2026-04-12 08:30 | 38.44482 | 40.60212 | 33991 ft | 434 kts | 301° |
| 2026-04-12 08:30 | 38.48021 | 40.53947 | 33988 ft | 436 kts | 301° |
| 2026-04-12 08:31 | 38.51567 | 40.47671 | 33980 ft | 436 kts | 301° |
| 2026-04-12 08:31 | 38.55103 | 40.41389 | 33976 ft | 435 kts | 301° |
| 2026-04-12 08:32 | 38.58641 | 40.35109 | 33978 ft | 435 kts | 301° |
| 2026-04-12 08:32 | 38.62169 | 40.28827 | 33989 ft | 435 kts | 301° |
| 2026-04-12 08:33 | 38.65690 | 40.22536 | 33988 ft | 435 kts | 301° |
| 2026-04-12 08:33 | 38.69208 | 40.16241 | 33995 ft | 435 kts | 301° |
| 2026-04-12 08:34 | 38.72727 | 40.09943 | 33994 ft | 435 kts | 301° |
| 2026-04-12 08:34 | 38.76238 | 40.03643 | 33995 ft | 434 kts | 301° |
| 2026-04-12 08:35 | 38.79742 | 39.97337 | 34003 ft | 434 kts | 301° |
| 2026-04-12 08:35 | 38.83223 | 39.91067 | 34004 ft | 434 kts | 301° |
| 2026-04-12 08:36 | 38.86725 | 39.84759 | 34007 ft | 434 kts | 302° |
| 2026-04-12 08:36 | 38.90221 | 39.78445 | 34010 ft | 434 kts | 301° |
| 2026-04-12 08:37 | 38.93706 | 39.72126 | 34003 ft | 433 kts | 302° |
| 2026-04-12 08:37 | 38.97183 | 39.65808 | 34011 ft | 433 kts | 301° |
| 2026-04-12 08:38 | 39.00658 | 39.59478 | 34014 ft | 433 kts | 302° |
| 2026-04-12 08:38 | 39.04130 | 39.53159 | 34017 ft | 432 kts | 302° |
| 2026-04-12 08:39 | 39.07601 | 39.46836 | 34022 ft | 432 kts | 302° |
| 2026-04-12 08:39 | 39.11051 | 39.40515 | 34020 ft | 432 kts | 302° |
| 2026-04-12 08:40 | 39.14176 | 39.33968 | 34025 ft | 426 kts | 290° |
| 2026-04-12 08:40 | 39.16195 | 39.26816 | 34028 ft | 425 kts | 287° |
| 2026-04-12 08:41 | 39.18173 | 39.19646 | 34025 ft | 425 kts | 287° |
| 2026-04-12 08:41 | 39.20154 | 39.12477 | 34028 ft | 424 kts | 287° |
| 2026-04-12 08:42 | 39.22131 | 39.05308 | 34029 ft | 424 kts | 287° |
| 2026-04-12 08:42 | 39.24105 | 38.98133 | 34032 ft | 424 kts | 287° |
| 2026-04-12 08:43 | 39.26068 | 38.90950 | 34033 ft | 425 kts | 287° |
| 2026-04-12 08:43 | 39.28022 | 38.83760 | 34037 ft | 424 kts | 287° |
| 2026-04-12 08:44 | 39.29969 | 38.76573 | 34040 ft | 424 kts | 287° |
| 2026-04-12 08:44 | 39.31917 | 38.69388 | 34040 ft | 424 kts | 288° |
| 2026-04-12 08:45 | 39.33867 | 38.62196 | 34042 ft | 424 kts | 288° |
| 2026-04-12 08:45 | 39.35807 | 38.55007 | 34037 ft | 424 kts | 288° |
| 2026-04-12 08:46 | 39.37726 | 38.47868 | 34040 ft | 423 kts | 288° |
| 2026-04-12 08:47 | 39.40613 | 38.37096 | 34039 ft | 422 kts | 288° |
| 2026-04-12 08:47 | 39.42529 | 38.29917 | 34039 ft | 422 kts | 288° |
| 2026-04-12 08:48 | 39.44435 | 38.22746 | 34045 ft | 421 kts | 288° |
| 2026-04-12 08:48 | 39.46333 | 38.15570 | 34046 ft | 421 kts | 288° |
| 2026-04-12 08:49 | 39.48230 | 38.08401 | 34045 ft | 421 kts | 288° |
| 2026-04-12 08:49 | 39.50121 | 38.01234 | 34046 ft | 421 kts | 288° |
| 2026-04-12 08:50 | 39.52008 | 37.94068 | 34041 ft | 420 kts | 288° |
| 2026-04-12 08:50 | 39.53891 | 37.86894 | 34037 ft | 420 kts | 288° |
| 2026-04-12 08:51 | 39.55769 | 37.79732 | 34057 ft | 420 kts | 288° |
| 2026-04-12 08:51 | 39.57642 | 37.72565 | 34063 ft | 420 kts | 288° |
| 2026-04-12 08:52 | 39.59499 | 37.65406 | 34059 ft | 419 kts | 288° |
| 2026-04-12 08:52 | 39.61356 | 37.58239 | 34065 ft | 419 kts | 288° |
| 2026-04-12 08:53 | 39.63202 | 37.51078 | 34055 ft | 419 kts | 288° |
| 2026-04-12 08:53 | 39.65047 | 37.43922 | 34061 ft | 418 kts | 288° |
| 2026-04-12 08:54 | 39.66891 | 37.36768 | 34061 ft | 418 kts | 288° |
| 2026-04-12 08:54 | 39.68726 | 37.29615 | 34073 ft | 417 kts | 288° |
| 2026-04-12 08:55 | 39.70548 | 37.22463 | 34067 ft | 417 kts | 288° |
| 2026-04-12 08:55 | 39.72368 | 37.15308 | 34074 ft | 417 kts | 288° |
| 2026-04-12 08:56 | 39.74191 | 37.08159 | 34072 ft | 417 kts | 288° |
| 2026-04-12 08:56 | 39.75697 | 37.02214 | 34073 ft | 417 kts | 288° |
| 2026-04-12 08:57 | 39.77504 | 36.95063 | 34065 ft | 416 kts | 288° |
| 2026-04-12 08:57 | 39.79159 | 36.87861 | 34065 ft | 416 kts | 281° |
| 2026-04-12 08:58 | 39.80174 | 36.80453 | 34075 ft | 416 kts | 281° |
| 2026-04-12 08:58 | 39.81171 | 36.73040 | 34065 ft | 416 kts | 281° |
| 2026-04-12 08:59 | 39.82164 | 36.65644 | 34066 ft | 415 kts | 281° |
| 2026-04-12 08:59 | 39.83160 | 36.58239 | 34078 ft | 415 kts | 281° |
| 2026-04-12 09:00 | 39.84151 | 36.50841 | 34084 ft | 415 kts | 281° |
| 2026-04-12 09:00 | 39.85142 | 36.43449 | 34095 ft | 415 kts | 281° |
| 2026-04-12 09:01 | 39.86132 | 36.36059 | 34099 ft | 414 kts | 281° |
| 2026-04-12 09:01 | 39.87172 | 36.28696 | 34102 ft | 414 kts | 282° |
| 2026-04-12 09:02 | 39.88234 | 36.21337 | 34100 ft | 413 kts | 282° |
| 2026-04-12 09:02 | 39.89214 | 36.13972 | 34098 ft | 413 kts | 281° |
| 2026-04-12 09:03 | 39.90164 | 36.06657 | 34093 ft | 412 kts | 281° |
| 2026-04-12 09:03 | 39.91121 | 35.99309 | 34112 ft | 412 kts | 282° |
| 2026-04-12 09:04 | 39.92074 | 35.91964 | 34110 ft | 411 kts | 282° |
| 2026-04-12 09:04 | 39.93019 | 35.84615 | 34103 ft | 411 kts | 282° |
| 2026-04-12 09:05 | 39.93970 | 35.77278 | 34101 ft | 410 kts | 282° |
| 2026-04-12 09:05 | 39.94913 | 35.69954 | 34104 ft | 410 kts | 282° |
| 2026-04-12 09:06 | 39.95854 | 35.62641 | 34099 ft | 408 kts | 282° |
| 2026-04-12 09:06 | 39.96778 | 35.55346 | 34097 ft | 408 kts | 282° |
| 2026-04-12 09:07 | 39.97699 | 35.48062 | 34093 ft | 407 kts | 282° |
| 2026-04-12 09:07 | 39.98605 | 35.40777 | 34093 ft | 407 kts | 282° |
| 2026-04-12 09:08 | 39.99508 | 35.33501 | 34095 ft | 406 kts | 282° |
| 2026-04-12 09:08 | 40.00383 | 35.26227 | 34095 ft | 406 kts | 282° |
| 2026-04-12 09:09 | 40.01238 | 35.18961 | 34098 ft | 405 kts | 282° |
| 2026-04-12 09:09 | 40.02091 | 35.11700 | 34096 ft | 404 kts | 282° |
| 2026-04-12 09:10 | 40.02940 | 35.04462 | 34094 ft | 404 kts | 282° |
| 2026-04-12 09:10 | 40.03789 | 34.97229 | 34097 ft | 403 kts | 282° |
| 2026-04-12 09:11 | 40.04628 | 34.90008 | 34097 ft | 402 kts | 282° |
| 2026-04-12 09:11 | 40.05459 | 34.82805 | 34097 ft | 401 kts | 282° |
| 2026-04-12 09:12 | 40.06285 | 34.75611 | 34097 ft | 400 kts | 282° |
| 2026-04-12 09:12 | 40.07104 | 34.68426 | 34094 ft | 400 kts | 282° |
| 2026-04-12 09:13 | 40.07907 | 34.61303 | 34096 ft | 399 kts | 282° |
| 2026-04-12 09:13 | 40.08711 | 34.54137 | 34098 ft | 398 kts | 282° |
| 2026-04-12 09:14 | 40.09515 | 34.46992 | 34096 ft | 398 kts | 282° |
| 2026-04-12 09:14 | 40.10313 | 34.39855 | 34105 ft | 397 kts | 282° |
| 2026-04-12 09:15 | 40.11100 | 34.32727 | 34100 ft | 396 kts | 282° |
| 2026-04-12 09:15 | 40.11883 | 34.25619 | 34098 ft | 395 kts | 282° |
| 2026-04-12 09:16 | 40.12662 | 34.18533 | 34097 ft | 394 kts | 283° |
| 2026-04-12 09:16 | 40.13439 | 34.11462 | 34094 ft | 392 kts | 282° |
| 2026-04-12 09:17 | 40.14205 | 34.04411 | 34092 ft | 391 kts | 283° |
| 2026-04-12 09:17 | 40.14959 | 33.97378 | 34092 ft | 390 kts | 283° |
| 2026-04-12 09:18 | 40.15786 | 33.90394 | 34094 ft | 388 kts | 284° |
| 2026-04-12 09:18 | 40.16771 | 33.83468 | 34096 ft | 387 kts | 285° |
| 2026-04-12 09:19 | 40.17624 | 33.76518 | 34094 ft | 387 kts | 283° |
| 2026-04-12 09:19 | 40.18312 | 33.69546 | 34094 ft | 386 kts | 282° |
| 2026-04-12 09:20 | 40.19329 | 33.59114 | 34101 ft | 384 kts | 283° |
| 2026-04-12 09:21 | 40.20381 | 33.48751 | 34104 ft | 382 kts | 283° |
| 2026-04-12 09:21 | 40.21083 | 33.41870 | 34103 ft | 381 kts | 283° |
| 2026-04-12 09:22 | 40.21396 | 33.38782 | 34103 ft | 380 kts | 283° |
| 2026-04-12 09:22 | 40.22087 | 33.31792 | 34108 ft | 378 kts | 283° |
| 2026-04-12 09:23 | 40.22763 | 33.25026 | 34104 ft | 377 kts | 283° |
| 2026-04-12 09:23 | 40.23425 | 33.18229 | 34107 ft | 376 kts | 283° |
| 2026-04-12 09:24 | 40.24098 | 33.11467 | 34102 ft | 372 kts | 286° |
| 2026-04-12 09:24 | 40.25590 | 33.05092 | 34100 ft | 365 kts | 293° |
| 2026-04-12 09:25 | 40.27229 | 32.98812 | 34103 ft | 364 kts | 293° |
| 2026-04-12 09:25 | 40.28855 | 32.92547 | 34099 ft | 363 kts | 293° |
| 2026-04-12 09:26 | 40.30471 | 32.86299 | 34097 ft | 362 kts | 293° |
| 2026-04-12 09:26 | 40.32082 | 32.80053 | 34099 ft | 361 kts | 293° |
| 2026-04-12 09:27 | 40.33683 | 32.73821 | 34097 ft | 361 kts | 293° |
| 2026-04-12 09:27 | 40.35280 | 32.67598 | 34100 ft | 360 kts | 294° |
| 2026-04-12 09:28 | 40.36875 | 32.61388 | 34099 ft | 359 kts | 294° |
| 2026-04-12 09:28 | 40.38465 | 32.55189 | 34101 ft | 358 kts | 294° |
| 2026-04-12 09:29 | 40.40039 | 32.49007 | 34102 ft | 357 kts | 294° |
| 2026-04-12 09:29 | 40.41610 | 32.42827 | 34103 ft | 357 kts | 294° |
| 2026-04-12 09:30 | 40.43179 | 32.36662 | 34104 ft | 356 kts | 294° |
| 2026-04-12 09:30 | 40.44725 | 32.30542 | 34109 ft | 355 kts | 294° |
| 2026-04-12 09:31 | 40.46271 | 32.24395 | 34103 ft | 355 kts | 294° |
| 2026-04-12 09:31 | 40.47832 | 32.18262 | 34113 ft | 353 kts | 295° |
| 2026-04-12 09:32 | 40.49589 | 32.12265 | 34112 ft | 351 kts | 296° |
| 2026-04-12 09:32 | 40.51412 | 32.06315 | 34106 ft | 351 kts | 296° |
| 2026-04-12 09:33 | 40.53207 | 32.00347 | 34112 ft | 351 kts | 296° |
| 2026-04-12 09:33 | 40.54970 | 31.94361 | 34110 ft | 351 kts | 296° |
| 2026-04-12 09:34 | 40.56727 | 31.88370 | 34115 ft | 351 kts | 296° |
| 2026-04-12 09:34 | 40.58477 | 31.82372 | 34120 ft | 351 kts | 295° |
| 2026-04-12 09:35 | 40.60045 | 31.76271 | 34121 ft | 353 kts | 293° |
| 2026-04-12 09:35 | 40.61526 | 31.70113 | 34127 ft | 353 kts | 293° |
| 2026-04-12 09:36 | 40.63003 | 31.64001 | 34123 ft | 352 kts | 293° |
| 2026-04-12 09:36 | 40.64516 | 31.57856 | 34064 ft | 353 kts | 293° |
| 2026-04-12 09:36 | 40.65269 | 31.54803 | 33766 ft | 349 kts | 293° |
| 2026-04-12 09:37 | 40.66016 | 31.51770 | 33492 ft | 347 kts | 293° |
| 2026-04-12 09:37 | 40.66756 | 31.48751 | 33225 ft | 346 kts | 293° |
| 2026-04-12 09:37 | 40.67494 | 31.45744 | 32966 ft | 344 kts | 293° |
| 2026-04-12 09:37 | 40.68228 | 31.42752 | 32706 ft | 343 kts | 293° |
| 2026-04-12 09:38 | 40.68959 | 31.39774 | 32451 ft | 342 kts | 293° |
| 2026-04-12 09:38 | 40.69687 | 31.36795 | 32196 ft | 340 kts | 293° |
| 2026-04-12 09:38 | 40.70407 | 31.33834 | 31943 ft | 339 kts | 293° |
| 2026-04-12 09:38 | 40.71124 | 31.30882 | 31689 ft | 338 kts | 293° |
| 2026-04-12 09:39 | 40.71841 | 31.27944 | 31443 ft | 336 kts | 293° |
| 2026-04-12 09:39 | 40.72553 | 31.25013 | 31199 ft | 335 kts | 293° |
| 2026-04-12 09:39 | 40.73258 | 31.22100 | 30948 ft | 333 kts | 293° |
| 2026-04-12 09:39 | 40.73960 | 31.19197 | 30710 ft | 332 kts | 293° |
| 2026-04-12 09:40 | 40.74658 | 31.16299 | 30479 ft | 330 kts | 293° |
| 2026-04-12 09:40 | 40.75350 | 31.13419 | 30231 ft | 329 kts | 294° |
| 2026-04-12 09:40 | 40.76037 | 31.10552 | 29943 ft | 327 kts | 293° |
| 2026-04-12 09:40 | 40.76725 | 31.07693 | 29657 ft | 327 kts | 293° |
| 2026-04-12 09:41 | 40.77416 | 31.04839 | 29377 ft | 326 kts | 293° |
| 2026-04-12 09:41 | 40.78108 | 31.01992 | 29089 ft | 326 kts | 293° |
| 2026-04-12 09:41 | 40.78783 | 30.99214 | 28826 ft | 326 kts | 293° |
| 2026-04-12 09:41 | 40.79471 | 30.96368 | 28553 ft | 325 kts | 293° |
| 2026-04-12 09:42 | 40.80155 | 30.93522 | 28285 ft | 325 kts | 292° |
| 2026-04-12 09:42 | 40.80836 | 30.90682 | 28016 ft | 325 kts | 292° |
| 2026-04-12 09:42 | 40.81515 | 30.87844 | 27748 ft | 324 kts | 292° |
| 2026-04-12 09:43 | 40.83531 | 30.79378 | 26959 ft | 323 kts | 292° |
| 2026-04-12 09:43 | 40.84202 | 30.76546 | 26714 ft | 323 kts | 292° |
| 2026-04-12 09:43 | 40.84872 | 30.73716 | 26462 ft | 323 kts | 292° |
| 2026-04-12 09:44 | 40.85547 | 30.70880 | 26202 ft | 323 kts | 292° |
| 2026-04-12 09:44 | 40.86219 | 30.68052 | 25954 ft | 323 kts | 292° |
| 2026-04-12 09:44 | 40.86713 | 30.65139 | 25704 ft | 328 kts | 283° |
| 2026-04-12 09:44 | 40.87001 | 30.62155 | 25457 ft | 328 kts | 283° |
| 2026-04-12 09:45 | 40.87292 | 30.59170 | 25207 ft | 328 kts | 283° |
| 2026-04-12 09:45 | 40.87586 | 30.56183 | 24977 ft | 327 kts | 283° |
| 2026-04-12 09:45 | 40.87882 | 30.53201 | 24735 ft | 327 kts | 283° |
| 2026-04-12 09:45 | 40.88177 | 30.50216 | 24494 ft | 328 kts | 283° |
| 2026-04-12 09:46 | 40.88603 | 30.47282 | 24265 ft | 323 kts | 291° |
| 2026-04-12 09:46 | 40.89475 | 30.44584 | 24041 ft | 318 kts | 303° |
| 2026-04-12 09:46 | 40.90772 | 30.42239 | 23804 ft | 316 kts | 313° |
| 2026-04-12 09:46 | 40.92245 | 30.40083 | 23528 ft | 316 kts | 313° |
| 2026-04-12 09:47 | 40.93711 | 30.37917 | 23245 ft | 316 kts | 313° |
| 2026-04-12 09:47 | 40.95160 | 30.35758 | 22965 ft | 310 kts | 313° |
| 2026-04-12 09:47 | 40.96570 | 30.33653 | 22691 ft | 303 kts | 313° |
| 2026-04-12 09:47 | 40.97490 | 30.32280 | 22514 ft | 299 kts | 313° |
| 2026-04-12 09:48 | 40.98853 | 30.30243 | 22270 ft | 292 kts | 313° |
| 2026-04-12 09:48 | 41.00358 | 30.28541 | 22199 ft | 279 kts | 330° |
| 2026-04-12 09:48 | 41.02158 | 30.27738 | 22208 ft | 271 kts | 349° |
| 2026-04-12 09:48 | 41.04033 | 30.27884 | 22208 ft | 275 kts | 9° |
| 2026-04-12 09:49 | 41.05785 | 30.28997 | 22217 ft | 288 kts | 31° |
| 2026-04-12 09:49 | 41.07126 | 30.31052 | 22213 ft | 306 kts | 56° |
| 2026-04-12 09:49 | 41.07721 | 30.33818 | 22219 ft | 323 kts | 83° |
| 2026-04-12 09:49 | 41.07316 | 30.36788 | 22221 ft | 337 kts | 113° |
| 2026-04-12 09:50 | 41.05966 | 30.39336 | 22224 ft | 342 kts | 130° |
| 2026-04-12 09:50 | 41.04388 | 30.41704 | 22207 ft | 343 kts | 131° |
| 2026-04-12 09:50 | 41.02800 | 30.44065 | 22207 ft | 343 kts | 131° |
| 2026-04-12 09:50 | 41.01204 | 30.46420 | 22218 ft | 344 kts | 133° |
| 2026-04-12 09:51 | 40.99303 | 30.48274 | 22205 ft | 339 kts | 162° |
| 2026-04-12 09:51 | 40.97035 | 30.48773 | 22207 ft | 327 kts | 193° |
| 2026-04-12 09:51 | 40.94938 | 30.47922 | 22212 ft | 309 kts | 220° |
| 2026-04-12 09:51 | 40.93402 | 30.46077 | 22214 ft | 292 kts | 245° |
| 2026-04-12 09:52 | 40.92600 | 30.43713 | 22206 ft | 277 kts | 266° |
| 2026-04-12 09:52 | 40.92541 | 30.41238 | 22210 ft | 266 kts | 286° |
| 2026-04-12 09:52 | 40.93149 | 30.38982 | 22210 ft | 259 kts | 304° |
| 2026-04-12 09:52 | 40.94212 | 30.37069 | 22216 ft | 258 kts | 311° |
| 2026-04-12 09:53 | 40.95379 | 30.35265 | 22217 ft | 258 kts | 313° |
| 2026-04-12 09:53 | 40.96580 | 30.33499 | 22211 ft | 258 kts | 313° |
| 2026-04-12 09:53 | 40.97788 | 30.31741 | 22212 ft | 258 kts | 313° |
| 2026-04-12 09:53 | 40.98993 | 30.29983 | 22211 ft | 258 kts | 314° |
| 2026-04-12 09:54 | 41.00400 | 30.28597 | 22208 ft | 258 kts | 336° |
| 2026-04-12 09:54 | 41.02195 | 30.28171 | 22220 ft | 266 kts | 360° |
| 2026-04-12 09:54 | 41.03968 | 30.28913 | 22214 ft | 282 kts | 26° |
| 2026-04-12 09:54 | 41.05341 | 30.30861 | 22207 ft | 304 kts | 57° |
| 2026-04-12 09:55 | 41.05816 | 30.33662 | 22208 ft | 325 kts | 88° |
| 2026-04-12 09:55 | 41.05182 | 30.36576 | 22217 ft | 338 kts | 118° |
| 2026-04-12 09:55 | 41.03746 | 30.39065 | 22207 ft | 343 kts | 131° |
| 2026-04-12 09:55 | 41.02105 | 30.41360 | 22208 ft | 344 kts | 134° |
| 2026-04-12 09:56 | 41.00409 | 30.43593 | 22205 ft | 344 kts | 137° |
| 2026-04-12 09:56 | 40.98402 | 30.45236 | 22207 ft | 338 kts | 168° |
| 2026-04-12 09:56 | 40.96122 | 30.45462 | 22204 ft | 323 kts | 199° |
| 2026-04-12 09:56 | 40.94166 | 30.44275 | 22211 ft | 302 kts | 231° |
| 2026-04-12 09:57 | 40.93043 | 30.42109 | 22205 ft | 278 kts | 263° |
| 2026-04-12 09:57 | 40.93016 | 30.39681 | 22218 ft | 260 kts | 294° |
| 2026-04-12 09:57 | 40.93864 | 30.37613 | 22221 ft | 256 kts | 309° |
| 2026-04-12 09:57 | 40.94990 | 30.35781 | 22214 ft | 257 kts | 313° |
| 2026-04-12 09:58 | 40.96185 | 30.34018 | 22217 ft | 257 kts | 314° |
| 2026-04-12 09:58 | 40.97396 | 30.32275 | 22218 ft | 257 kts | 314° |
| 2026-04-12 09:58 | 40.98606 | 30.30529 | 22210 ft | 257 kts | 314° |
| 2026-04-12 09:58 | 40.99910 | 30.28923 | 22213 ft | 256 kts | 329° |
| 2026-04-12 09:59 | 41.01596 | 30.28178 | 22216 ft | 262 kts | 352° |
| 2026-04-12 09:59 | 41.03420 | 30.28565 | 22217 ft | 276 kts | 18° |
| 2026-04-12 09:59 | 41.04971 | 30.30163 | 22216 ft | 296 kts | 47° |
| 2026-04-12 09:59 | 41.05755 | 30.32763 | 22214 ft | 319 kts | 79° |
| 2026-04-12 10:00 | 41.05458 | 30.35725 | 22220 ft | 335 kts | 110° |
| 2026-04-12 10:00 | 41.04210 | 30.38309 | 22223 ft | 341 kts | 129° |
| 2026-04-12 10:00 | 41.02584 | 30.40672 | 22222 ft | 343 kts | 134° |
| 2026-04-12 10:00 | 41.00918 | 30.42882 | 22211 ft | 344 kts | 135° |
| 2026-04-12 10:01 | 40.99049 | 30.44825 | 22197 ft | 341 kts | 159° |
| 2026-04-12 10:01 | 40.96791 | 30.45486 | 22208 ft | 329 kts | 190° |
| 2026-04-12 10:01 | 40.94680 | 30.44688 | 22207 ft | 308 kts | 222° |
| 2026-04-12 10:01 | 40.93272 | 30.42744 | 22202 ft | 284 kts | 253° |
| 2026-04-12 10:02 | 40.92916 | 30.40313 | 22204 ft | 263 kts | 285° |
| 2026-04-12 10:02 | 40.93572 | 30.38126 | 22214 ft | 256 kts | 308° |
| 2026-04-12 10:02 | 40.94663 | 30.36267 | 22201 ft | 256 kts | 312° |
| 2026-04-12 10:02 | 40.95843 | 30.34504 | 22209 ft | 256 kts | 314° |
| 2026-04-12 10:03 | 40.97050 | 30.32768 | 22203 ft | 256 kts | 314° |
| 2026-04-12 10:03 | 40.98254 | 30.31032 | 22214 ft | 256 kts | 314° |
| 2026-04-12 10:03 | 40.99486 | 30.29329 | 22223 ft | 256 kts | 322° |
| 2026-04-12 10:03 | 41.01071 | 30.28301 | 22218 ft | 259 kts | 345° |
| 2026-04-12 10:04 | 41.02886 | 30.28348 | 22209 ft | 270 kts | 10° |
| 2026-04-12 10:04 | 41.04556 | 30.29604 | 22213 ft | 289 kts | 38° |
| 2026-04-12 10:04 | 41.05594 | 30.31975 | 22211 ft | 312 kts | 70° |
| 2026-04-12 10:04 | 41.05600 | 30.34913 | 22215 ft | 331 kts | 102° |
| 2026-04-12 10:05 | 41.04546 | 30.37643 | 22221 ft | 339 kts | 127° |
| 2026-04-12 10:05 | 41.02987 | 30.40016 | 22214 ft | 342 kts | 133° |
| 2026-04-12 10:05 | 41.01313 | 30.42261 | 22209 ft | 343 kts | 135° |
| 2026-04-12 10:05 | 40.99531 | 30.44352 | 22194 ft | 342 kts | 151° |
| 2026-04-12 10:06 | 40.97331 | 30.45340 | 22209 ft | 331 kts | 183° |
| 2026-04-12 10:06 | 40.95144 | 30.44854 | 22210 ft | 312 kts | 214° |
| 2026-04-12 10:06 | 40.93547 | 30.43117 | 22215 ft | 289 kts | 246° |
| 2026-04-12 10:06 | 40.92950 | 30.40731 | 22210 ft | 267 kts | 278° |
| 2026-04-12 10:07 | 40.93429 | 30.38455 | 22215 ft | 256 kts | 304° |
| 2026-04-12 10:07 | 40.94484 | 30.36554 | 22209 ft | 257 kts | 311° |
| 2026-04-12 10:07 | 40.95658 | 30.34774 | 22217 ft | 257 kts | 313° |
| 2026-04-12 10:07 | 40.96867 | 30.33025 | 22206 ft | 257 kts | 314° |
| 2026-04-12 10:08 | 40.98077 | 30.31283 | 22212 ft | 257 kts | 314° |
| 2026-04-12 10:08 | 40.99300 | 30.29549 | 22213 ft | 257 kts | 319° |
| 2026-04-12 10:08 | 41.00834 | 30.28374 | 22219 ft | 259 kts | 342° |
| 2026-04-12 10:08 | 41.02649 | 30.28239 | 22211 ft | 269 kts | 6° |
| 2026-04-12 10:09 | 41.04357 | 30.29284 | 22212 ft | 286 kts | 33° |
| 2026-04-12 10:09 | 41.05538 | 30.31493 | 22214 ft | 308 kts | 65° |
| 2026-04-12 10:09 | 41.05733 | 30.34384 | 22219 ft | 327 kts | 97° |
| 2026-04-12 10:09 | 41.04834 | 30.37175 | 22217 ft | 337 kts | 125° |
| 2026-04-12 10:10 | 41.03322 | 30.39566 | 22210 ft | 340 kts | 132° |
| 2026-04-12 10:10 | 41.01684 | 30.41825 | 22213 ft | 341 kts | 134° |
| 2026-04-12 10:10 | 40.99987 | 30.44014 | 22211 ft | 341 kts | 142° |
| 2026-04-12 10:10 | 40.97902 | 30.45363 | 22205 ft | 332 kts | 175° |
| 2026-04-12 10:11 | 40.95672 | 30.45248 | 22214 ft | 316 kts | 206° |
| 2026-04-12 10:11 | 40.93891 | 30.43786 | 22209 ft | 294 kts | 238° |
| 2026-04-12 10:11 | 40.93030 | 30.41492 | 22210 ft | 272 kts | 270° |
| 2026-04-12 10:11 | 40.93257 | 30.39114 | 22214 ft | 259 kts | 297° |
| 2026-04-12 10:12 | 40.94192 | 30.37106 | 22217 ft | 257 kts | 310° |
| 2026-04-12 10:12 | 40.95341 | 30.35285 | 22208 ft | 258 kts | 313° |
| 2026-04-12 10:12 | 40.96544 | 30.33518 | 22205 ft | 260 kts | 313° |
| 2026-04-12 10:12 | 40.97823 | 30.31689 | 22207 ft | 282 kts | 314° |
| 2026-04-12 10:13 | 40.99207 | 30.29730 | 22202 ft | 301 kts | 314° |
| 2026-04-12 10:13 | 41.00661 | 30.27634 | 21828 ft | 313 kts | 313° |
| 2026-04-12 10:13 | 41.02120 | 30.25471 | 21473 ft | 316 kts | 312° |
| 2026-04-12 10:13 | 41.03576 | 30.23279 | 21135 ft | 317 kts | 312° |
| 2026-04-12 10:14 | 41.05029 | 30.21084 | 20783 ft | 317 kts | 312° |
| 2026-04-12 10:14 | 41.06479 | 30.18889 | 20437 ft | 317 kts | 310° |
| 2026-04-12 10:14 | 41.07551 | 30.16363 | 20138 ft | 316 kts | 287° |
| 2026-04-12 10:14 | 41.07607 | 30.13481 | 19922 ft | 318 kts | 259° |
| 2026-04-12 10:15 | 41.06592 | 30.10862 | 19720 ft | 328 kts | 233° |
| 2026-04-12 10:15 | 41.04949 | 30.08734 | 19410 ft | 331 kts | 227° |
| 2026-04-12 10:15 | 41.03224 | 30.06708 | 19091 ft | 331 kts | 225° |
| 2026-04-12 10:15 | 41.01479 | 30.04728 | 18767 ft | 330 kts | 225° |
| 2026-04-12 10:16 | 40.99738 | 30.02764 | 18436 ft | 328 kts | 225° |
| 2026-04-12 10:16 | 40.98008 | 30.00804 | 18101 ft | 326 kts | 225° |
| 2026-04-12 10:16 | 40.96295 | 29.98847 | 17808 ft | 325 kts | 225° |
| 2026-04-12 10:16 | 40.94596 | 29.96894 | 17507 ft | 323 kts | 225° |
| 2026-04-12 10:17 | 40.92912 | 29.94947 | 17210 ft | 321 kts | 225° |
| 2026-04-12 10:17 | 40.91239 | 29.93009 | 16918 ft | 319 kts | 225° |
| 2026-04-12 10:17 | 40.89601 | 29.91098 | 16631 ft | 317 kts | 227° |
| 2026-04-12 10:17 | 40.88198 | 29.88860 | 16337 ft | 309 kts | 242° |
| 2026-04-12 10:18 | 40.87320 | 29.86460 | 16046 ft | 304 kts | 254° |
| 2026-04-12 10:18 | 40.86867 | 29.83746 | 15632 ft | 302 kts | 268° |
| 2026-04-12 10:18 | 40.86812 | 29.80989 | 15265 ft | 300 kts | 271° |
| 2026-04-12 10:18 | 40.86786 | 29.78257 | 15187 ft | 296 kts | 271° |
| 2026-04-12 10:19 | 40.86757 | 29.75533 | 15193 ft | 297 kts | 271° |
| 2026-04-12 10:19 | 40.86725 | 29.72808 | 15195 ft | 296 kts | 271° |
| 2026-04-12 10:19 | 40.86690 | 29.70087 | 15194 ft | 296 kts | 271° |
| 2026-04-12 10:19 | 40.86651 | 29.67370 | 15190 ft | 296 kts | 271° |
| 2026-04-12 10:20 | 40.86624 | 29.64653 | 15189 ft | 295 kts | 275° |
| 2026-04-12 10:20 | 40.86849 | 29.61976 | 15188 ft | 293 kts | 280° |
| 2026-04-12 10:20 | 40.87124 | 29.59312 | 15188 ft | 292 kts | 280° |
| 2026-04-12 10:20 | 40.87402 | 29.56653 | 15190 ft | 292 kts | 280° |
| 2026-04-12 10:21 | 40.87682 | 29.54002 | 15188 ft | 291 kts | 280° |
| 2026-04-12 10:21 | 40.87957 | 29.51413 | 15185 ft | 277 kts | 283° |
| 2026-04-12 10:21 | 40.88633 | 29.49127 | 15185 ft | 263 kts | 307° |
| 2026-04-12 10:21 | 40.89954 | 29.47489 | 15191 ft | 262 kts | 330° |
| 2026-04-12 10:22 | 40.91666 | 29.46756 | 15192 ft | 265 kts | 352° |
| 2026-04-12 10:22 | 40.93516 | 29.46615 | 15195 ft | 267 kts | 354° |
| 2026-04-12 10:22 | 40.95372 | 29.46494 | 15194 ft | 268 kts | 354° |
| 2026-04-12 10:22 | 40.97234 | 29.46345 | 15193 ft | 267 kts | 349° |
| 2026-04-12 10:23 | 40.99023 | 29.45738 | 15192 ft | 266 kts | 340° |
| 2026-04-12 10:23 | 41.00786 | 29.44983 | 15194 ft | 266 kts | 340° |
| 2026-04-12 10:23 | 41.02545 | 29.44232 | 15191 ft | 266 kts | 340° |
| 2026-04-12 10:23 | 41.04315 | 29.43476 | 14816 ft | 269 kts | 340° |
| 2026-04-12 10:24 | 41.06088 | 29.42665 | 14438 ft | 270 kts | 334° |
| 2026-04-12 10:24 | 41.07704 | 29.41402 | 14101 ft | 270 kts | 326° |
| 2026-04-12 10:24 | 41.09281 | 29.40043 | 13744 ft | 270 kts | 326° |
| 2026-04-12 10:24 | 41.10859 | 29.38691 | 13413 ft | 270 kts | 326° |
| 2026-04-12 10:25 | 41.12434 | 29.37343 | 13099 ft | 269 kts | 326° |
| 2026-04-12 10:25 | 41.13962 | 29.35928 | 12789 ft | 267 kts | 318° |
| 2026-04-12 10:25 | 41.15242 | 29.34149 | 12463 ft | 266 kts | 312° |
| 2026-04-12 10:25 | 41.16481 | 29.32333 | 12148 ft | 265 kts | 312° |
| 2026-04-12 10:26 | 41.17629 | 29.30430 | 11854 ft | 264 kts | 298° |
| 2026-04-12 10:26 | 41.18100 | 29.28181 | 11565 ft | 264 kts | 271° |
| 2026-04-12 10:26 | 41.17720 | 29.25804 | 11259 ft | 267 kts | 244° |
| 2026-04-12 10:26 | 41.16535 | 29.23921 | 10950 ft | 270 kts | 218° |
| 2026-04-12 10:27 | 41.14994 | 29.22492 | 10622 ft | 271 kts | 216° |
| 2026-04-12 10:27 | 41.13434 | 29.21083 | 10315 ft | 270 kts | 216° |
| 2026-04-12 10:27 | 41.11907 | 29.19713 | 9940 ft | 267 kts | 216° |
| 2026-04-12 10:27 | 41.10376 | 29.18338 | 9399 ft | 265 kts | 216° |
| 2026-04-12 10:28 | 41.08857 | 29.16969 | 8884 ft | 263 kts | 215° |
| 2026-04-12 10:28 | 41.07368 | 29.15619 | 8524 ft | 257 kts | 216° |
| 2026-04-12 10:28 | 41.05897 | 29.14286 | 8243 ft | 257 kts | 215° |
| 2026-04-12 10:28 | 41.04418 | 29.12947 | 7957 ft | 257 kts | 215° |
| 2026-04-12 10:29 | 41.02945 | 29.11613 | 7673 ft | 256 kts | 215° |
| 2026-04-12 10:29 | 41.01477 | 29.10286 | 7392 ft | 255 kts | 215° |
| 2026-04-12 10:29 | 41.00011 | 29.08958 | 7106 ft | 255 kts | 215° |
| 2026-04-12 10:29 | 40.98551 | 29.07637 | 6824 ft | 255 kts | 214° |
| 2026-04-12 10:30 | 40.97087 | 29.06314 | 6560 ft | 254 kts | 214° |
| 2026-04-12 10:30 | 40.95631 | 29.05001 | 6248 ft | 254 kts | 214° |
| 2026-04-12 10:30 | 40.94176 | 29.03689 | 6015 ft | 250 kts | 214° |
| 2026-04-12 10:30 | 40.92799 | 29.02357 | 5975 ft | 240 kts | 224° |
| 2026-04-12 10:31 | 40.91833 | 29.00612 | 5837 ft | 236 kts | 246° |
| 2026-04-12 10:31 | 40.91414 | 28.98522 | 5553 ft | 238 kts | 267° |
| 2026-04-12 10:31 | 40.91540 | 28.96352 | 5193 ft | 235 kts | 277° |
| 2026-04-12 10:31 | 40.91741 | 28.94198 | 4823 ft | 237 kts | 277° |
| 2026-04-12 10:32 | 40.91938 | 28.92019 | 4446 ft | 240 kts | 277° |
| 2026-04-12 10:32 | 40.92131 | 28.89826 | 4094 ft | 241 kts | 277° |
| 2026-04-12 10:32 | 40.92318 | 28.87651 | 3978 ft | 232 kts | 277° |
| 2026-04-12 10:32 | 40.92500 | 28.85540 | 3985 ft | 232 kts | 277° |
| 2026-04-12 10:33 | 40.92683 | 28.83424 | 3984 ft | 232 kts | 277° |
| 2026-04-12 10:33 | 40.92961 | 28.81331 | 3982 ft | 231 kts | 289° |
| 2026-04-12 10:33 | 40.93718 | 28.79478 | 3982 ft | 230 kts | 310° |
| 2026-04-12 10:33 | 40.94911 | 28.78081 | 3981 ft | 230 kts | 329° |
| 2026-04-12 10:34 | 40.96289 | 28.77010 | 3985 ft | 229 kts | 330° |
| 2026-04-12 10:34 | 40.97727 | 28.76273 | 3980 ft | 215 kts | 352° |
| 2026-04-12 10:34 | 40.99175 | 28.76182 | 3984 ft | 205 kts | 360° |
| 2026-04-12 10:34 | 41.00597 | 28.76155 | 3985 ft | 204 kts | 360° |
| 2026-04-12 10:35 | 41.02019 | 28.76128 | 3987 ft | 204 kts | 360° |
| 2026-04-12 10:35 | 41.03434 | 28.76101 | 3981 ft | 203 kts | 360° |
| 2026-04-12 10:35 | 41.04850 | 28.76074 | 3981 ft | 204 kts | 360° |
| 2026-04-12 10:35 | 41.06268 | 28.76048 | 3982 ft | 204 kts | 360° |
| 2026-04-12 10:36 | 41.07689 | 28.76021 | 3966 ft | 205 kts | 360° |
| 2026-04-12 10:36 | 41.09101 | 28.75994 | 3769 ft | 202 kts | 360° |
| 2026-04-12 10:36 | 41.10504 | 28.75968 | 3520 ft | 201 kts | 360° |
| 2026-04-12 10:36 | 41.11432 | 28.75950 | 3348 ft | 201 kts | 360° |
| 2026-04-12 10:37 | 41.12808 | 28.75924 | 3070 ft | 195 kts | 360° |
| 2026-04-12 10:37 | 41.14151 | 28.75899 | 2800 ft | 191 kts | 360° |
| 2026-04-12 10:37 | 41.15451 | 28.75874 | 2530 ft | 181 kts | 0° |
| 2026-04-12 10:37 | 41.16652 | 28.75851 | 2304 ft | 163 kts | 0° |
| 2026-04-12 10:38 | 41.17725 | 28.75830 | 2089 ft | 149 kts | 1° |
| 2026-04-12 10:38 | 41.18732 | 28.75811 | 1878 ft | 142 kts | 0° |
| 2026-04-12 10:38 | 41.19711 | 28.75793 | 1687 ft | 140 kts | 0° |
| 2026-04-12 10:38 | 41.20678 | 28.75773 | 1483 ft | 138 kts | 1° |
| 2026-04-12 10:39 | 41.21646 | 28.75756 | 1301 ft | 139 kts | 1° |
| 2026-04-12 10:39 | 41.22605 | 28.75744 | 1072 ft | 136 kts | 2° |
| 2026-04-12 10:39 | 41.23551 | 28.75723 | 879 ft | 138 kts | 2° |
| 2026-04-12 10:39 | 41.24521 | 28.75706 | 686 ft | 141 kts | 3° |
| 2026-04-12 10:40 | 41.25484 | 28.75687 | 501 ft | 134 kts | 3° |
| 2026-04-12 10:40 | 41.26409 | 28.75664 | 363 ft | 133 kts | 4° |
| 2026-04-12 10:40 | 41.27220 | 28.75654 | 330 ft | 95 kts | 359° |
| 2026-04-12 10:40 | 41.27717 | 28.75643 | 330 ft | 52 kts | 357° |
| 2026-04-12 10:41 | 41.27974 | 28.75606 | 332 ft | 29 kts | 343° |
| 2026-04-12 10:41 | 41.28131 | 28.75500 | 331 ft | 22 kts | 327° |
| 2026-04-12 10:41 | 41.28159 | 28.75399 | 333 ft | 7 kts | 252° |
| 2026-04-12 10:41 | 41.28125 | 28.75351 | 333 ft | 8 kts | 198° |
| 2026-04-12 10:42 | 41.28064 | 28.75350 | 333 ft | 10 kts | 177° |
| 2026-04-12 10:42 | 41.27988 | 28.75353 | 332 ft | 12 kts | 178° |
| 2026-04-12 10:42 | 41.27895 | 28.75354 | 334 ft | 15 kts | 179° |
| 2026-04-12 10:42 | 41.27783 | 28.75357 | 332 ft | 17 kts | 178° |
| 2026-04-12 10:43 | 41.27514 | 28.75363 | 332 ft | 20 kts | 179° |
| 2026-04-12 10:43 | 41.27364 | 28.75366 | 332 ft | 23 kts | 179° |
| 2026-04-12 10:43 | 41.27197 | 28.75370 | 331 ft | 25 kts | 179° |
| 2026-04-12 10:44 | 41.27082 | 28.75346 | 334 ft | 15 kts | 230° |
| 2026-04-12 10:44 | 41.27069 | 28.75212 | 334 ft | 15 kts | 265° |
| 2026-04-12 10:44 | 41.26992 | 28.75149 | 333 ft | 16 kts | 179° |
| 2026-04-12 10:44 | 41.26898 | 28.75202 | 333 ft | 16 kts | 112° |
| 2026-04-12 10:45 | 41.26802 | 28.75265 | 331 ft | 18 kts | 178° |
| 2026-04-12 10:45 | 41.26672 | 28.75269 | 333 ft | 20 kts | 178° |
| 2026-04-12 10:45 | 41.26525 | 28.75274 | 331 ft | 22 kts | 178° |
| 2026-04-12 10:45 | 41.26361 | 28.75277 | 332 ft | 25 kts | 179° |
| 2026-04-12 10:46 | 41.26260 | 28.75262 | 333 ft | 12 kts | 220° |
| 2026-04-12 10:46 | 41.26244 | 28.75159 | 334 ft | 7 kts | 269° |
| 2026-04-12 10:46 | 41.26242 | 28.75086 | 334 ft | 8 kts | 269° |
| 2026-04-12 10:46 | 41.26224 | 28.75012 | 332 ft | 9 kts | 227° |
| 2026-04-12 10:47 | 41.26195 | 28.74943 | 331 ft | 9 kts | 252° |
| 2026-04-12 10:47 | 41.26184 | 28.74897 | 333 ft | 1 kts | 252° |
| 2026-04-12 10:47 | 41.26183 | 28.74892 | 334 ft | 0 kts | 252° |